Time;durP1;ratioP1;P1;durP2;ratioP2;P2;SDS_P1;SDS_P2;PMS_P1;PMS_P2;Temp;Humidity;BMP_temperature;BMP_pressure;BME280_temperature;BME280_humidity;BME280_pressure;Samples;Min_cycle;Max_cycle;Signal;HPM_P1;HPM_P2
2022/09/15 00:00:15;;;;;;;8.23;3.05;;;;;;;;;;4332505;33;20051;-70
2022/09/15 00:02:41;;;;;;;6.00;2.65;;;;;;;;;;4331497;33;20402;-69
2022/09/15 00:05:07;;;;;;;6.68;2.85;;;;;;;;;;4331135;33;20469;-69
2022/09/15 00:07:32;;;;;;;6.53;3.00;;;;;;;;;;4318696;33;20020;-69
2022/09/15 00:09:57;;;;;;;4.63;2.77;;;;;;;;;;4333098;33;20441;-70
2022/09/15 00:12:23;;;;;;;5.55;2.55;;;;;;;;;;4331657;33;20125;-70
2022/09/15 00:14:48;;;;;;;10.45;3.25;;;;;;;;;;4332512;33;20076;-70
2022/09/15 00:17:13;;;;;;;5.05;2.60;;;;;;;;;;4332912;33;20054;-70
2022/09/15 00:19:38;;;;;;;11.13;3.23;;;;;;;;;;4333009;33;20027;-70
2022/09/15 00:22:03;;;;;;;7.87;2.55;;;;;;;;;;4331834;33;20117;-70
2022/09/15 00:24:29;;;;;;;10.10;2.70;;;;;;;;;;4332539;33;20024;-70
2022/09/15 00:26:54;;;;;;;9.88;3.12;;;;;;;;;;4331478;33;20023;-70
2022/09/15 00:29:19;;;;;;;5.80;2.83;;;;;;;;;;4331925;33;20032;-69
2022/09/15 00:31:44;;;;;;;8.27;2.75;;;;;;;;;;4331722;33;20374;-69
2022/09/15 00:34:11;;;;;;;8.88;3.22;;;;;;;;;;4332087;33;20052;-70
2022/09/15 00:36:36;;;;;;;7.57;2.83;;;;;;;;;;4332777;33;20067;-70
2022/09/15 00:39:02;;;;;;;6.00;2.65;;;;;;;;;;4351333;27;20031;-71
2022/09/15 00:41:27;;;;;;;7.43;3.00;;;;;;;;;;4341791;33;20415;-71
2022/09/15 00:43:58;;;;;;;9.15;2.83;;;;;;;;;;4331796;33;20116;-71
2022/09/15 00:46:25;;;;;;;6.53;2.62;;;;;;;;;;4332520;33;20036;-71
2022/09/15 00:48:53;;;;;;;7.53;3.30;;;;;;;;;;4332971;33;20031;-71
2022/09/15 00:51:21;;;;;;;9.60;3.10;;;;;;;;;;4332010;33;20050;-71
2022/09/15 00:53:47;;;;;;;6.00;2.90;;;;;;;;;;4330514;33;20032;-71
2022/09/15 00:56:12;;;;;;;6.55;2.33;;;;;;;;;;4330774;33;20032;-71
2022/09/15 00:58:44;;;;;;;6.97;2.22;;;;;;;;;;4332643;33;20032;-71
2022/09/15 01:01:10;;;;;;;4.90;2.03;;;;;;;;;;4331786;33;20063;-71
2022/09/15 01:03:35;;;;;;;8.00;2.75;;;;;;;;;;4331346;33;20043;-70
2022/09/15 01:06:04;;;;;;;9.23;2.60;;;;;;;;;;4330019;33;20047;-71
2022/09/15 01:08:35;;;;;;;9.20;2.78;;;;;;;;;;4331268;33;20085;-71
2022/09/15 01:11:01;;;;;;;7.28;3.00;;;;;;;;;;4332246;33;20104;-71
2022/09/15 01:13:28;;;;;;;8.27;2.55;;;;;;;;;;4332157;33;20028;-71
2022/09/15 01:16:12;;;;;;;7.78;2.87;;;;;;;;;;4331249;33;20032;-71
2022/09/15 01:18:56;;;;;;;10.40;2.95;;;;;;;;;;4331365;33;20078;-70
2022/09/15 01:21:39;;;;;;;6.53;2.90;;;;;;;;;;4331648;33;20070;-71
2022/09/15 01:24:18;;;;;;;9.27;3.67;;;;;;;;;;4331677;33;20075;-71
2022/09/15 01:26:52;;;;;;;8.13;4.03;;;;;;;;;;4331038;33;20422;-70
2022/09/15 01:29:37;;;;;;;7.53;3.92;;;;;;;;;;4331257;33;20028;-71
2022/09/15 01:35:09;;;;;;;9.63;4.90;;;;;;;;;;4330901;33;20062;-71
2022/09/15 01:37:38;;;;;;;8.15;4.82;;;;;;;;;;4332997;33;20063;-72
2022/09/15 01:40:04;;;;;;;10.80;5.18;;;;;;;;;;4330677;33;20054;-71
2022/09/15 01:42:30;;;;;;;8.40;5.40;;;;;;;;;;4330782;33;20036;-71
2022/09/15 01:44:59;;;;;;;11.88;5.45;;;;;;;;;;4331948;33;20020;-70
2022/09/15 01:47:27;;;;;;;9.75;5.12;;;;;;;;;;4330956;33;20089;-71
2022/09/15 01:49:58;;;;;;;12.18;5.35;;;;;;;;;;4331711;33;20031;-71
2022/09/15 01:52:24;;;;;;;8.57;4.72;;;;;;;;;;4332089;33;20040;-71
2022/09/15 01:54:54;;;;;;;9.70;4.50;;;;;;;;;;4330787;33;20036;-71
2022/09/15 01:57:20;;;;;;;10.00;4.90;;;;;;;;;;4332734;33;20023;-71
2022/09/15 01:59:46;;;;;;;7.82;5.25;;;;;;;;;;4331184;33;20062;-71
2022/09/15 02:02:18;;;;;;;8.68;5.40;;;;;;;;;;4331239;33;20031;-71
2022/09/15 02:04:48;;;;;;;9.10;5.10;;;;;;;;;;4331119;33;20032;-71
2022/09/15 02:07:19;;;;;;;8.98;5.57;;;;;;;;;;4316887;33;20054;-71
2022/09/15 02:09:49;;;;;;;10.98;5.60;;;;;;;;;;4315946;33;20063;-72
2022/09/15 02:12:18;;;;;;;9.55;4.78;;;;;;;;;;4316840;33;20107;-71
2022/09/15 02:14:54;;;;;;;10.90;4.90;;;;;;;;;;4316109;33;20054;-71
2022/09/15 02:17:20;;;;;;;10.25;4.15;;;;;;;;;;4317362;33;20024;-72
2022/09/15 02:19:55;;;;;;;10.00;4.15;;;;;;;;;;4317686;33;20055;-71
2022/09/15 02:22:26;;;;;;;11.60;4.53;;;;;;;;;;4330575;33;20028;-71
2022/09/15 02:25:07;;;;;;;8.50;3.50;;;;;;;;;;4331343;33;20012;-71
2022/09/15 02:27:40;;;;;;;7.35;3.47;;;;;;;;;;4331985;33;20032;-71
2022/09/15 02:30:08;;;;;;;10.15;3.60;;;;;;;;;;4331087;33;20460;-71
2022/09/15 02:32:36;;;;;;;8.15;3.17;;;;;;;;;;4331559;33;20059;-71
2022/09/15 02:35:05;;;;;;;9.13;3.65;;;;;;;;;;4330304;33;20422;-70
2022/09/15 02:37:30;;;;;;;7.43;3.03;;;;;;;;;;4317600;33;20100;-71
2022/09/15 02:39:59;;;;;;;10.45;3.67;;;;;;;;;;4330308;33;20062;-71
2022/09/15 02:42:28;;;;;;;6.47;3.03;;;;;;;;;;4331932;33;20126;-71
2022/09/15 02:44:53;;;;;;;8.07;3.65;;;;;;;;;;4330393;33;20390;-71
2022/09/15 02:47:19;;;;;;;6.10;2.92;;;;;;;;;;4331380;33;20024;-71
2022/09/15 02:49:44;;;;;;;7.32;3.00;;;;;;;;;;4317044;33;20367;-71
2022/09/15 02:52:10;;;;;;;8.32;3.45;;;;;;;;;;4330928;33;20036;-70
2022/09/15 02:54:35;;;;;;;7.93;3.22;;;;;;;;;;4330384;33;20422;-71
2022/09/15 02:57:00;;;;;;;8.00;3.05;;;;;;;;;;4330799;33;20020;-70
2022/09/15 02:59:25;;;;;;;5.62;3.20;;;;;;;;;;4330345;33;20079;-71
2022/09/15 03:01:51;;;;;;;8.60;3.00;;;;;;;;;;4329467;33;20039;-71
2022/09/15 03:04:17;;;;;;;11.85;3.92;;;;;;;;;;4330260;33;20449;-71
2022/09/15 03:06:42;;;;;;;10.77;3.28;;;;;;;;;;4330915;33;20024;-70
2022/09/15 03:09:08;;;;;;;7.50;3.10;;;;;;;;;;4330397;33;20032;-70
2022/09/15 03:11:34;;;;;;;9.90;3.37;;;;;;;;;;4331654;33;20028;-70
2022/09/15 03:14:01;;;;;;;11.20;3.65;;;;;;;;;;4330972;33;20024;-70
2022/09/15 03:16:27;;;;;;;6.60;3.03;;;;;;;;;;4330389;33;20028;-70
2022/09/15 03:18:53;;;;;;;9.57;3.20;;;;;;;;;;4330417;33;20374;-71
2022/09/15 03:21:20;;;;;;;5.05;2.67;;;;;;;;;;4330142;33;20103;-70
2022/09/15 03:23:45;;;;;;;8.27;2.87;;;;;;;;;;4330543;33;20410;-70
2022/09/15 03:26:11;;;;;;;7.72;2.90;;;;;;;;;;4329916;33;20028;-69
2022/09/15 03:28:37;;;;;;;7.07;2.65;;;;;;;;;;4331278;33;20418;-70
2022/09/15 03:31:03;;;;;;;10.18;2.90;;;;;;;;;;4332702;33;20051;-69
2022/09/15 03:33:28;;;;;;;10.40;3.35;;;;;;;;;;4332764;33;20032;-69
2022/09/15 03:35:54;;;;;;;10.98;3.08;;;;;;;;;;4332563;33;20094;-70
2022/09/15 03:38:20;;;;;;;5.72;3.10;;;;;;;;;;4332731;33;20379;-70
2022/09/15 03:41:01;;;;;;;9.65;3.50;;;;;;;;;;4333272;33;20105;-69
2022/09/15 03:43:30;;;;;;;6.37;2.85;;;;;;;;;;4333044;33;20032;-70
2022/09/15 03:46:01;;;;;;;6.12;3.10;;;;;;;;;;4343608;33;20032;-70
2022/09/15 03:48:27;;;;;;;7.93;2.87;;;;;;;;;;4347877;33;20023;-70
2022/09/15 03:50:52;;;;;;;6.37;3.17;;;;;;;;;;4347577;33;20090;-70
2022/09/15 03:53:19;;;;;;;11.43;3.42;;;;;;;;;;4332958;33;20466;-70
2022/09/15 03:55:44;;;;;;;10.85;3.50;;;;;;;;;;4332168;33;20036;-71
2022/09/15 03:58:10;;;;;;;8.63;3.42;;;;;;;;;;4332803;33;20374;-71
2022/09/15 04:00:35;;;;;;;7.07;3.10;;;;;;;;;;4333082;33;20036;-70
2022/09/15 04:03:01;;;;;;;10.38;3.35;;;;;;;;;;4332795;33;20036;-71
2022/09/15 04:05:26;;;;;;;11.82;3.67;;;;;;;;;;4332758;33;20403;-70
2022/09/15 04:07:51;;;;;;;15.23;4.35;;;;;;;;;;4332269;33;20032;-70
2022/09/15 04:10:17;;;;;;;10.63;4.12;;;;;;;;;;4333573;33;20472;-70
2022/09/15 04:12:43;;;;;;;11.57;4.30;;;;;;;;;;4332273;33;20070;-70
2022/09/15 04:15:09;;;;;;;8.52;4.72;;;;;;;;;;4332769;33;20028;-70
2022/09/15 04:17:34;;;;;;;10.68;4.40;;;;;;;;;;4331782;33;20460;-70
2022/09/15 04:19:59;;;;;;;13.60;5.03;;;;;;;;;;4333119;33;20399;-70
2022/09/15 04:22:25;;;;;;;13.13;5.40;;;;;;;;;;4332375;33;20023;-70
2022/09/15 04:24:50;;;;;;;9.40;4.80;;;;;;;;;;4332079;33;20059;-70
2022/09/15 04:27:16;;;;;;;12.63;5.95;;;;;;;;;;4332874;33;20460;-70
2022/09/15 04:29:41;;;;;;;10.38;5.35;;;;;;;;;;4332766;33;20406;-70
2022/09/15 04:32:07;;;;;;;11.35;5.72;;;;;;;;;;4332320;33;20036;-70
2022/09/15 04:34:32;;;;;;;10.43;5.15;;;;;;;;;;4331981;33;20476;-70
2022/09/15 04:36:57;;;;;;;9.20;4.37;;;;;;;;;;4332990;33;20028;-70
2022/09/15 04:39:23;;;;;;;14.90;4.68;;;;;;;;;;4331089;33;20035;-69
2022/09/15 04:41:48;;;;;;;8.88;3.70;;;;;;;;;;4331673;33;20029;-70
2022/09/15 04:44:14;;;;;;;7.78;2.60;;;;;;;;;;4332658;33;20148;-70
2022/09/15 04:46:39;;;;;;;8.38;3.20;;;;;;;;;;4332071;33;20024;-70
2022/09/15 04:49:04;;;;;;;7.10;2.20;;;;;;;;;;4332021;33;20054;-69
2022/09/15 04:51:30;;;;;;;7.60;2.20;;;;;;;;;;4331650;33;20029;-70
2022/09/15 04:53:58;;;;;;;6.68;1.85;;;;;;;;;;4333020;33;20095;-72
2022/09/15 04:56:24;;;;;;;7.90;1.98;;;;;;;;;;4332217;33;20058;-72
2022/09/15 04:58:51;;;;;;;10.85;2.00;;;;;;;;;;4318172;33;20047;-70
2022/09/15 05:01:18;;;;;;;4.95;1.83;;;;;;;;;;4332885;33;20050;-70
2022/09/15 05:03:45;;;;;;;6.90;2.20;;;;;;;;;;4331654;33;20095;-71
2022/09/15 05:06:11;;;;;;;8.38;2.10;;;;;;;;;;4329914;33;20032;-71
2022/09/15 05:08:36;;;;;;;7.05;1.50;;;;;;;;;;4330366;33;20036;-70
2022/09/15 05:11:03;;;;;;;5.22;1.58;;;;;;;;;;4329471;33;20159;-70
2022/09/15 05:13:28;;;;;;;7.82;2.60;;;;;;;;;;4324450;33;20032;-70
2022/09/15 05:15:54;;;;;;;9.55;2.40;;;;;;;;;;4329512;33;20097;-71
2022/09/15 05:18:19;;;;;;;5.70;2.10;;;;;;;;;;4329789;33;20090;-71
2022/09/15 05:20:44;;;;;;;11.23;2.37;;;;;;;;;;4329752;33;20194;-70
2022/09/15 05:23:09;;;;;;;7.30;2.53;;;;;;;;;;4329403;33;20036;-71
2022/09/15 05:25:35;;;;;;;4.05;2.20;;;;;;;;;;4329728;33;20339;-70
2022/09/15 05:28:00;;;;;;;9.60;2.85;;;;;;;;;;4331054;33;20047;-71
2022/09/15 05:30:26;;;;;;;6.62;2.33;;;;;;;;;;4329919;33;20036;-72
2022/09/15 05:32:51;;;;;;;7.07;2.03;;;;;;;;;;4331643;33;20040;-70
2022/09/15 05:35:17;;;;;;;13.20;2.70;;;;;;;;;;4331378;33;20027;-70
2022/09/15 05:37:43;;;;;;;11.30;3.03;;;;;;;;;;4330947;33;20027;-71
2022/09/15 05:40:12;;;;;;;9.38;2.45;;;;;;;;;;4330499;33;20090;-70
2022/09/15 05:42:37;;;;;;;6.78;2.60;;;;;;;;;;4329679;33;20051;-71
2022/09/15 05:45:03;;;;;;;13.00;2.58;;;;;;;;;;4331277;33;20035;-70
2022/09/15 05:47:29;;;;;;;8.43;2.85;;;;;;;;;;4331073;33;20036;-70
2022/09/15 05:49:57;;;;;;;9.63;2.53;;;;;;;;;;4331028;33;20032;-70
2022/09/15 05:52:22;;;;;;;7.03;2.70;;;;;;;;;;4330665;33;20051;-70
2022/09/15 05:54:48;;;;;;;7.87;2.12;;;;;;;;;;4332724;33;20032;-70
2022/09/15 05:57:13;;;;;;;9.60;2.33;;;;;;;;;;4331096;33;20082;-71
2022/09/15 05:59:40;;;;;;;8.05;2.92;;;;;;;;;;4330187;33;20082;-71
2022/09/15 06:02:07;;;;;;;12.50;2.90;;;;;;;;;;4330089;33;20422;-71
2022/09/15 06:04:33;;;;;;;9.27;2.20;;;;;;;;;;4330600;33;20027;-71
2022/09/15 06:06:58;;;;;;;10.05;2.28;;;;;;;;;;4329430;33;20031;-71
2022/09/15 06:09:23;;;;;;;4.57;1.77;;;;;;;;;;4331356;33;20469;-70
2022/09/15 06:11:49;;;;;;;7.15;2.20;;;;;;;;;;4330364;33;20044;-70
2022/09/15 06:14:14;;;;;;;3.17;1.60;;;;;;;;;;4331401;33;20165;-71
2022/09/15 06:16:39;;;;;;;5.85;2.28;;;;;;;;;;4330477;33;20027;-72
2022/09/15 06:19:05;;;;;;;9.20;1.92;;;;;;;;;;4329752;33;20024;-69
2022/09/15 06:21:31;;;;;;;6.40;2.10;;;;;;;;;;4330212;33;20051;-70
2022/09/15 06:23:57;;;;;;;9.27;2.40;;;;;;;;;;4330650;33;20445;-70
2022/09/15 06:26:23;;;;;;;8.88;2.58;;;;;;;;;;4331567;33;20027;-70
2022/09/15 06:28:52;;;;;;;4.18;1.87;;;;;;;;;;4329882;33;20046;-70
2022/09/15 06:31:17;;;;;;;16.65;2.75;;;;;;;;;;4329341;33;20072;-70
2022/09/15 06:33:44;;;;;;;5.70;2.10;;;;;;;;;;4329682;33;20027;-69
2022/09/15 06:36:23;;;;;;;12.45;2.65;;;;;;;;;;4330120;33;20040;-70
2022/09/15 06:38:49;;;;;;;12.32;2.80;;;;;;;;;;4328088;33;20378;-69
2022/09/15 06:41:14;;;;;;;5.87;2.20;;;;;;;;;;4331047;33;20082;-69
2022/09/15 06:43:40;;;;;;;8.25;2.55;;;;;;;;;;4330624;33;20095;-68
2022/09/15 06:46:07;;;;;;;13.77;2.58;;;;;;;;;;4329852;33;20390;-69
2022/09/15 06:48:33;;;;;;;7.87;2.75;;;;;;;;;;4330774;33;20083;-70
2022/09/15 06:51:19;;;;;;;6.43;2.33;;;;;;;;;;4331248;33;20052;-70
2022/09/15 06:54:18;;;;;;;;;;;;;;;;;;;;;
2022/09/15 07:00:24;;;;;;;12.13;3.22;;;;;;;;;;4286742;33;20035;-69
2022/09/15 07:02:49;;;;;;;12.77;2.95;;;;;;;;;;4285098;33;20056;-69
2022/09/15 07:05:15;;;;;;;11.90;3.35;;;;;;;;;;4287738;33;20100;-70
2022/09/15 07:07:41;;;;;;;10.48;2.75;;;;;;;;;;4307975;33;20096;-69
2022/09/15 07:10:06;;;;;;;9.02;3.05;;;;;;;;;;4333319;33;20035;-67
2022/09/15 07:12:31;;;;;;;8.60;2.55;;;;;;;;;;4333583;33;20070;-67
2022/09/15 07:14:57;;;;;;;10.27;3.40;;;;;;;;;;4332563;33;20027;-63
2022/09/15 07:17:22;;;;;;;11.20;2.50;;;;;;;;;;4334359;33;20028;-66
2022/09/15 07:19:47;;;;;;;8.75;2.75;;;;;;;;;;4332628;33;20027;-69
2022/09/15 07:22:12;;;;;;;13.05;2.80;;;;;;;;;;4332789;33;20024;-67
2022/09/15 07:24:38;;;;;;;9.30;3.10;;;;;;;;;;4332956;33;20032;-64
2022/09/15 07:27:03;;;;;;;15.90;2.70;;;;;;;;;;4332132;33;20170;-64
2022/09/15 07:29:28;;;;;;;8.83;2.77;;;;;;;;;;4333975;33;20150;-67
2022/09/15 07:31:53;;;;;;;9.95;2.55;;;;;;;;;;4332759;33;20163;-65
2022/09/15 07:34:18;;;;;;;11.30;2.75;;;;;;;;;;4332233;33;20070;-64
2022/09/15 07:36:43;;;;;;;7.15;2.33;;;;;;;;;;4333604;33;20122;-65
2022/09/15 07:39:09;;;;;;;9.63;2.57;;;;;;;;;;4319306;33;20365;-66
2022/09/15 07:41:34;;;;;;;8.30;2.20;;;;;;;;;;4333379;33;20160;-66
2022/09/15 07:43:59;;;;;;;10.35;2.72;;;;;;;;;;4332467;33;20029;-65
2022/09/15 07:46:26;;;;;;;15.93;2.40;;;;;;;;;;4332591;33;20147;-67
2022/09/15 07:48:52;;;;;;;6.55;1.83;;;;;;;;;;4331966;33;20028;-66
2022/09/15 07:51:17;;;;;;;14.20;2.33;;;;;;;;;;4332567;33;20054;-65
2022/09/15 07:53:43;;;;;;;11.95;2.40;;;;;;;;;;4332025;33;20050;-69
2022/09/15 07:56:08;;;;;;;14.10;2.70;;;;;;;;;;4332759;33;20415;-65
2022/09/15 07:58:34;;;;;;;13.13;2.62;;;;;;;;;;4333657;33;20024;-69
2022/09/15 08:01:03;;;;;;;9.02;2.20;;;;;;;;;;4332445;33;20023;-68
2022/09/15 08:03:29;;;;;;;13.77;3.67;;;;;;;;;;4332340;33;20032;-67
2022/09/15 08:05:57;;;;;;;9.15;2.60;;;;;;;;;;4331715;33;20221;-65
2022/09/15 08:08:23;;;;;;;8.13;2.45;;;;;;;;;;4331405;33;20050;-68
2022/09/15 08:10:48;;;;;;;10.30;2.42;;;;;;;;;;4333508;33;20027;-64
2022/09/15 08:13:13;;;;;;;9.93;2.20;;;;;;;;;;4333564;33;20313;-66
2022/09/15 08:15:38;;;;;;;13.23;3.25;;;;;;;;;;4331711;33;20151;-65
2022/09/15 08:18:04;;;;;;;13.35;2.30;;;;;;;;;;4332775;33;20402;-70
2022/09/15 08:20:30;;;;;;;14.80;3.10;;;;;;;;;;4318327;33;20035;-68
2022/09/15 08:22:55;;;;;;;10.73;2.85;;;;;;;;;;4333488;33;20477;-66
2022/09/15 08:25:21;;;;;;;9.02;2.00;;;;;;;;;;4331343;33;20051;-64
2022/09/15 08:27:46;;;;;;;7.05;2.00;;;;;;;;;;4331322;33;20024;-64
2022/09/15 08:30:11;;;;;;;15.15;2.65;;;;;;;;;;4331177;33;20023;-64
2022/09/15 08:32:36;;;;;;;13.00;2.45;;;;;;;;;;4332878;33;20133;-67
2022/09/15 08:35:02;;;;;;;10.63;3.03;;;;;;;;;;4332124;33;20028;-68
2022/09/15 08:37:27;;;;;;;10.77;2.25;;;;;;;;;;4332188;33;20124;-65
2022/09/15 08:39:52;;;;;;;6.68;1.87;;;;;;;;;;4331073;33;20052;-64
2022/09/15 08:42:18;;;;;;;11.05;2.10;;;;;;;;;;4330828;33;20029;-68
2022/09/15 08:44:46;;;;;;;8.10;1.80;;;;;;;;;;4332605;33;20027;-68
2022/09/15 08:47:14;;;;;;;9.30;2.25;;;;;;;;;;4331640;33;20359;-65
2022/09/15 08:49:42;;;;;;;6.68;1.90;;;;;;;;;;4344895;33;20032;-65
2022/09/15 08:52:12;;;;;;;10.20;2.08;;;;;;;;;;4346012;33;20095;-69
2022/09/15 08:54:38;;;;;;;8.82;1.77;;;;;;;;;;4347040;33;20410;-64
2022/09/15 08:57:04;;;;;;;11.88;1.80;;;;;;;;;;4343373;33;20061;-64
2022/09/15 08:59:33;;;;;;;7.00;1.50;;;;;;;;;;4345656;33;20106;-65
2022/09/15 09:02:11;;;;;;;9.02;2.17;;;;;;;;;;4345942;33;20406;-67
2022/09/15 09:04:59;;;;;;;5.53;1.62;;;;;;;;;;4345591;33;20032;-63
2022/09/15 09:07:43;;;;;;;4.60;1.50;;;;;;;;;;4344742;33;20039;-63
2022/09/15 09:10:16;;;;;;;6.05;1.60;;;;;;;;;;4344753;33;20027;-64
2022/09/15 09:12:49;;;;;;;7.90;2.03;;;;;;;;;;4346152;33;20452;-63
2022/09/15 09:15:14;;;;;;;8.27;1.70;;;;;;;;;;4346048;33;20050;-63
2022/09/15 09:17:58;;;;;;;8.63;2.00;;;;;;;;;;4346957;33;20020;-64
2022/09/15 09:20:23;;;;;;;6.25;1.40;;;;;;;;;;4347145;33;20106;-64
2022/09/15 09:22:50;;;;;;;6.15;1.85;;;;;;;;;;4345631;33;20409;-63
2022/09/15 09:25:17;;;;;;;15.60;2.45;;;;;;;;;;4345950;33;20079;-66
2022/09/15 09:27:42;;;;;;;5.40;1.50;;;;;;;;;;4346311;33;20054;-63
2022/09/15 09:30:14;;;;;;;6.87;2.30;;;;;;;;;;4345578;33;20019;-64
2022/09/15 09:32:45;;;;;;;8.73;1.77;;;;;;;;;;4345220;33;20023;-63
2022/09/15 09:35:17;;;;;;;9.30;1.87;;;;;;;;;;4346089;33;20110;-66
2022/09/15 09:37:42;;;;;;;7.07;1.62;;;;;;;;;;4345239;33;20086;-63
2022/09/15 09:40:12;;;;;;;7.25;1.83;;;;;;;;;;4344764;33;20043;-66
2022/09/15 09:42:38;;;;;;;5.70;1.73;;;;;;;;;;4346469;33;20060;-65
2022/09/15 09:45:03;;;;;;;8.98;1.62;;;;;;;;;;4345750;33;20024;-64
2022/09/15 09:47:32;;;;;;;6.00;2.15;;;;;;;;;;4345065;33;20107;-69
2022/09/15 09:49:58;;;;;;;9.68;2.12;;;;;;;;;;4345407;33;20061;-66
2022/09/15 09:52:37;;;;;;;9.70;2.00;;;;;;;;;;4333316;33;20099;-65
2022/09/15 09:55:28;;;;;;;14.30;2.67;;;;;;;;;;4327909;33;20062;-69
2022/09/15 09:58:10;;;;;;;6.03;1.60;;;;;;;;;;4327863;33;20102;-70
2022/09/15 10:00:36;;;;;;;6.18;1.60;;;;;;;;;;4330031;33;20142;-67
2022/09/15 10:03:10;;;;;;;7.50;1.98;;;;;;;;;;4330631;33;20090;-69
2022/09/15 10:05:35;;;;;;;7.95;1.83;;;;;;;;;;4331295;33;20068;-67
2022/09/15 10:08:01;;;;;;;11.15;1.95;;;;;;;;;;4329168;33;20111;-68
2022/09/15 10:10:31;;;;;;;7.50;2.00;;;;;;;;;;4330312;33;20376;-65
2022/09/15 10:12:56;;;;;;;10.50;1.92;;;;;;;;;;4329167;33;20039;-65
2022/09/15 10:15:22;;;;;;;9.60;2.80;;;;;;;;;;4329574;33;20024;-67
2022/09/15 10:17:48;;;;;;;7.40;1.58;;;;;;;;;;4316541;33;20059;-67
2022/09/15 10:20:33;;;;;;;3.40;1.40;;;;;;;;;;4316552;33;20415;-70
2022/09/15 10:23:06;;;;;;;6.00;1.73;;;;;;;;;;4316668;33;20040;-70
2022/09/15 10:25:36;;;;;;;5.87;1.58;;;;;;;;;;4331366;33;20040;-68
2022/09/15 10:28:07;;;;;;;6.35;1.20;;;;;;;;;;4330447;33;20096;-66
2022/09/15 10:30:33;;;;;;;4.93;1.35;;;;;;;;;;4329769;33;20032;-66
2022/09/15 10:33:21;;;;;;;6.82;1.70;;;;;;;;;;4329463;33;20074;-65
2022/09/15 10:35:47;;;;;;;4.37;1.67;;;;;;;;;;4321333;33;20047;-67
2022/09/15 10:38:14;;;;;;;7.28;2.42;;;;;;;;;;4332795;33;20036;-63
2022/09/15 10:40:52;;;;;;;3.67;1.40;;;;;;;;;;4320338;33;20036;-66
2022/09/15 10:43:36;;;;;;;5.32;1.58;;;;;;;;;;4332600;33;20027;-67
2022/09/15 10:46:22;;;;;;;8.25;1.65;;;;;;;;;;4319110;33;20028;-63
2022/09/15 10:48:57;;;;;;;4.07;1.77;;;;;;;;;;4333611;33;20064;-66
2022/09/15 10:51:41;;;;;;;4.85;1.60;;;;;;;;;;4333356;33;20366;-63
2022/09/15 10:54:25;;;;;;;8.80;2.12;;;;;;;;;;4333675;33;20410;-63
2022/09/15 10:57:09;;;;;;;6.22;1.73;;;;;;;;;;4332037;33;20062;-65
2022/09/15 10:59:38;;;;;;;5.85;1.50;;;;;;;;;;4331968;33;20028;-65
2022/09/15 11:02:06;;;;;;;6.75;1.45;;;;;;;;;;4332046;33;20037;-69
2022/09/15 11:04:43;;;;;;;3.17;1.30;;;;;;;;;;4332284;33;20058;-63
2022/09/15 11:07:15;;;;;;;3.53;1.30;;;;;;;;;;4319302;33;20070;-69
2022/09/15 11:09:42;;;;;;;8.23;1.58;;;;;;;;;;4333661;33;20032;-69
2022/09/15 11:12:17;;;;;;;3.87;1.40;;;;;;;;;;4333868;33;20045;-69
2022/09/15 11:14:51;;;;;;;6.35;1.52;;;;;;;;;;4318549;33;20032;-67
2022/09/15 11:17:25;;;;;;;4.95;1.60;;;;;;;;;;4332814;33;20050;-69
2022/09/15 11:20:09;;;;;;;5.00;1.50;;;;;;;;;;4332149;33;20084;-69
2022/09/15 11:22:38;;;;;;;5.15;1.52;;;;;;;;;;4331755;33;20115;-70
2022/09/15 11:25:30;;;;;;;10.57;1.80;;;;;;;;;;4331797;33;20040;-64
2022/09/15 11:27:58;;;;;;;6.75;1.70;;;;;;;;;;4328364;33;20063;-64
2022/09/15 11:30:24;;;;;;;9.40;2.00;;;;;;;;;;4318512;33;20031;-64
2022/09/15 11:32:58;;;;;;;9.70;2.22;;;;;;;;;;4332632;33;20065;-64
2022/09/15 11:35:42;;;;;;;10.07;2.30;;;;;;;;;;4331039;33;20039;-64
2022/09/15 11:38:17;;;;;;;7.05;2.12;;;;;;;;;;4319484;33;20147;-63
2022/09/15 11:41:05;;;;;;;7.97;1.65;;;;;;;;;;4331170;33;20036;-68
2022/09/15 11:43:36;;;;;;;4.68;1.50;;;;;;;;;;4323567;33;20442;-62
2022/09/15 11:49:01;;;;;;;4.07;1.40;;;;;;;;;;4330698;33;20054;-66
2022/09/15 11:51:27;;;;;;;8.20;2.00;;;;;;;;;;4331425;33;20057;-65
2022/09/15 11:53:54;;;;;;;9.23;2.30;;;;;;;;;;4331003;33;20088;-64
2022/09/15 11:56:38;;;;;;;4.40;1.58;;;;;;;;;;4331044;33;20050;-63
2022/09/15 11:59:19;;;;;;;4.35;1.87;;;;;;;;;;4318725;33;20054;-62
2022/09/15 12:01:45;;;;;;;7.05;1.77;;;;;;;;;;4332091;33;20067;-63
2022/09/15 12:04:17;;;;;;;5.15;1.42;;;;;;;;;;4330591;33;20032;-65
2022/09/15 12:06:42;;;;;;;7.72;1.92;;;;;;;;;;4331721;33;20514;-64
2022/09/15 12:09:11;;;;;;;4.97;1.60;;;;;;;;;;4331977;33;20379;-69
2022/09/15 12:11:40;;;;;;;13.10;1.50;;;;;;;;;;4332076;33;20071;-65
2022/09/15 12:14:09;;;;;;;10.80;2.47;;;;;;;;;;4331149;33;20063;-67
2022/09/15 12:16:34;;;;;;;4.15;1.55;;;;;;;;;;4331566;33;20048;-68
2022/09/15 12:19:09;;;;;;;6.28;1.70;;;;;;;;;;4319494;33;20406;-66
2022/09/15 12:21:38;;;;;;;6.10;1.73;;;;;;;;;;4332562;33;20032;-65
2022/09/15 12:24:16;;;;;;;6.30;1.70;;;;;;;;;;4332018;33;20044;-67
2022/09/15 12:26:42;;;;;;;11.73;1.80;;;;;;;;;;4331023;33;20043;-69
2022/09/15 12:29:25;;;;;;;6.97;1.80;;;;;;;;;;4330364;33;20315;-69
2022/09/15 12:32:09;;;;;;;9.30;1.83;;;;;;;;;;4332396;33;20050;-66
2022/09/15 12:34:35;;;;;;;6.50;2.55;;;;;;;;;;4331325;33;20028;-66
2022/09/15 12:37:13;;;;;;;7.45;1.77;;;;;;;;;;4331162;33;20028;-64
2022/09/15 12:39:40;;;;;;;6.75;1.70;;;;;;;;;;4317048;33;20086;-65
2022/09/15 12:42:07;;;;;;;10.55;2.12;;;;;;;;;;4331365;33;20087;-64
2022/09/15 12:44:34;;;;;;;7.60;1.62;;;;;;;;;;4330276;33;20461;-65
2022/09/15 12:47:00;;;;;;;5.35;1.37;;;;;;;;;;4330908;33;20048;-63
2022/09/15 12:49:28;;;;;;;4.68;1.40;;;;;;;;;;4329103;33;20079;-68
2022/09/15 12:51:54;;;;;;;8.40;2.05;;;;;;;;;;4328951;33;20043;-65
2022/09/15 12:54:22;;;;;;;5.55;1.40;;;;;;;;;;4332257;33;20510;-66
2022/09/15 12:56:51;;;;;;;6.72;2.47;;;;;;;;;;4332167;33;20422;-66
2022/09/15 12:59:16;;;;;;;8.07;1.87;;;;;;;;;;4331359;33;20064;-68
2022/09/15 13:01:48;;;;;;;8.50;1.55;;;;;;;;;;4330714;33;20074;-71
2022/09/15 13:04:23;;;;;;;7.05;1.70;;;;;;;;;;4332302;33;20028;-70
2022/09/15 13:07:27;;;;;;;4.15;1.33;;;;;;;;;;4331566;33;20044;-70
2022/09/15 13:09:57;;;;;;;10.32;1.65;;;;;;;;;;4259934;33;20379;-70
2022/09/15 13:12:25;;;;;;;3.30;1.15;;;;;;;;;;4272156;33;20086;-70
2022/09/15 13:14:52;;;;;;;7.82;1.73;;;;;;;;;;4302184;33;20378;-70
2022/09/15 13:17:20;;;;;;;6.20;1.58;;;;;;;;;;4330967;33;20058;-71
2022/09/15 13:19:50;;;;;;;8.00;1.90;;;;;;;;;;4331394;33;20053;-70
2022/09/15 13:22:15;;;;;;;7.18;1.75;;;;;;;;;;4331759;33;20174;-70
2022/09/15 13:24:44;;;;;;;6.82;2.10;;;;;;;;;;4332000;33;20025;-70
2022/09/15 13:27:10;;;;;;;5.93;1.73;;;;;;;;;;4331883;33;20040;-70
2022/09/15 13:29:42;;;;;;;5.68;1.70;;;;;;;;;;4331412;33;20093;-69
2022/09/15 13:32:26;;;;;;;5.87;2.00;;;;;;;;;;4331565;33;20071;-69
2022/09/15 13:34:58;;;;;;;11.50;1.90;;;;;;;;;;4331925;33;20031;-70
2022/09/15 13:37:29;;;;;;;8.10;1.65;;;;;;;;;;4330899;33;20024;-70
2022/09/15 13:40:06;;;;;;;7.47;1.98;;;;;;;;;;4317762;33;20070;-69
2022/09/15 13:42:44;;;;;;;3.90;1.55;;;;;;;;;;4332414;33;20062;-70
2022/09/15 13:45:21;;;;;;;5.30;1.60;;;;;;;;;;4329790;33;20036;-69
2022/09/15 13:47:46;;;;;;;4.68;1.67;;;;;;;;;;4331153;33;20067;-69
2022/09/15 13:50:14;;;;;;;7.57;1.83;;;;;;;;;;4331262;33;20039;-69
2022/09/15 13:52:39;;;;;;;5.37;1.50;;;;;;;;;;4331610;33;20028;-69
2022/09/15 13:55:14;;;;;;;4.40;1.37;;;;;;;;;;4330918;33;20062;-70
2022/09/15 13:57:40;;;;;;;6.57;1.90;;;;;;;;;;4330627;33;20366;-68
2022/09/15 14:00:12;;;;;;;8.90;1.75;;;;;;;;;;4331198;33;20468;-69
2022/09/15 14:02:40;;;;;;;5.57;1.60;;;;;;;;;;4331365;33;20448;-69
2022/09/15 14:05:07;;;;;;;4.18;1.58;;;;;;;;;;4331082;33;20514;-69
2022/09/15 14:07:32;;;;;;;10.05;1.70;;;;;;;;;;4330635;33;20058;-69
2022/09/15 14:09:57;;;;;;;6.80;1.92;;;;;;;;;;4331928;33;20028;-69
2022/09/15 14:12:23;;;;;;;6.87;2.00;;;;;;;;;;4330368;33;20028;-69
2022/09/15 14:14:53;;;;;;;5.40;1.40;;;;;;;;;;4328686;33;20086;-69
2022/09/15 14:17:20;;;;;;;4.93;1.85;;;;;;;;;;4329495;33;20475;-69
2022/09/15 14:19:47;;;;;;;6.30;1.83;;;;;;;;;;4328714;33;20088;-71
2022/09/15 14:22:25;;;;;;;4.87;2.03;;;;;;;;;;4328864;33;20464;-68
2022/09/15 14:24:50;;;;;;;7.57;2.30;;;;;;;;;;4329072;33;20677;-69
2022/09/15 14:27:21;;;;;;;6.68;1.70;;;;;;;;;;4329047;33;20079;-70
2022/09/15 14:29:49;;;;;;;8.95;1.90;;;;;;;;;;4328495;33;20141;-70
2022/09/15 14:32:15;;;;;;;5.37;1.90;;;;;;;;;;4329179;33;20069;-69
2022/09/15 14:34:41;;;;;;;7.55;2.55;;;;;;;;;;4328875;33;20097;-70
2022/09/15 14:37:11;;;;;;;3.95;1.35;;;;;;;;;;4328236;33;20071;-69
2022/09/15 14:39:39;;;;;;;10.15;2.03;;;;;;;;;;4328143;33;20061;-70
2022/09/15 14:42:29;;;;;;;9.70;1.70;;;;;;;;;;4327899;33;20064;-70
2022/09/15 14:44:55;;;;;;;7.62;2.03;;;;;;;;;;4329712;33;20046;-70
2022/09/15 14:47:21;;;;;;;8.57;2.65;;;;;;;;;;4329075;33;20135;-70
2022/09/15 14:49:47;;;;;;;10.13;1.98;;;;;;;;;;4329179;33;20031;-69
2022/09/15 14:52:22;;;;;;;13.57;2.67;;;;;;;;;;4329926;33;20378;-70
2022/09/15 14:54:48;;;;;;;8.43;1.65;;;;;;;;;;4328769;33;20315;-70
2022/09/15 14:57:17;;;;;;;5.82;2.33;;;;;;;;;;4328561;33;20115;-69
2022/09/15 14:59:44;;;;;;;8.25;1.85;;;;;;;;;;4329102;33;20106;-70